sensor_id;sensor_type;location;lat;lon;timestamp;P1;durP1;ratioP1;P2;durP2;ratioP2
16450;SDS011;12243;42.708;23.310;2023-03-07T00:00:56;16.07;;;9.83;;
16450;SDS011;12243;42.708;23.310;2023-03-07T00:03:22;14.13;;;9.63;;
16450;SDS011;12243;42.708;23.310;2023-03-07T00:05:58;16.80;;;9.27;;
16450;SDS011;12243;42.708;23.310;2023-03-07T00:08:25;15.33;;;9.73;;
16450;SDS011;12243;42.708;23.310;2023-03-07T00:10:54;13.40;;;8.20;;
16450;SDS011;12243;42.708;23.310;2023-03-07T00:13:20;14.63;;;9.30;;
16450;SDS011;12243;42.708;23.310;2023-03-07T00:15:47;11.50;;;8.73;;
16450;SDS011;12243;42.708;23.310;2023-03-07T00:18:14;14.27;;;9.47;;
16450;SDS011;12243;42.708;23.310;2023-03-07T00:20:41;14.33;;;9.40;;
16450;SDS011;12243;42.708;23.310;2023-03-07T00:23:08;14.40;;;10.33;;
16450;SDS011;12243;42.708;23.310;2023-03-07T00:25:35;14.73;;;10.13;;
16450;SDS011;12243;42.708;23.310;2023-03-07T00:28:03;12.40;;;8.53;;
16450;SDS011;12243;42.708;23.310;2023-03-07T00:30:30;13.83;;;10.07;;
16450;SDS011;12243;42.708;23.310;2023-03-07T00:32:57;15.27;;;9.67;;
16450;SDS011;12243;42.708;23.310;2023-03-07T00:35:24;12.57;;;9.33;;
16450;SDS011;12243;42.708;23.310;2023-03-07T00:37:51;18.87;;;11.00;;
16450;SDS011;12243;42.708;23.310;2023-03-07T00:40:18;18.13;;;10.90;;
16450;SDS011;12243;42.708;23.310;2023-03-07T00:42:45;17.17;;;11.60;;
16450;SDS011;12243;42.708;23.310;2023-03-07T00:45:13;12.40;;;9.60;;
16450;SDS011;12243;42.708;23.310;2023-03-07T00:47:40;19.93;;;9.93;;
16450;SDS011;12243;42.708;23.310;2023-03-07T00:50:08;16.80;;;10.53;;
16450;SDS011;12243;42.708;23.310;2023-03-07T00:52:35;17.57;;;11.07;;
16450;SDS011;12243;42.708;23.310;2023-03-07T00:55:03;22.10;;;11.53;;
16450;SDS011;12243;42.708;23.310;2023-03-07T00:57:30;17.20;;;10.73;;
16450;SDS011;12243;42.708;23.310;2023-03-07T00:59:57;15.20;;;10.60;;
16450;SDS011;12243;42.708;23.310;2023-03-07T01:02:25;13.80;;;9.87;;
16450;SDS011;12243;42.708;23.310;2023-03-07T01:04:52;15.90;;;10.67;;
16450;SDS011;12243;42.708;23.310;2023-03-07T01:07:19;15.50;;;10.60;;
16450;SDS011;12243;42.708;23.310;2023-03-07T01:09:48;17.50;;;10.33;;
16450;SDS011;12243;42.708;23.310;2023-03-07T01:12:17;15.57;;;10.13;;
16450;SDS011;12243;42.708;23.310;2023-03-07T01:14:44;16.97;;;11.00;;
16450;SDS011;12243;42.708;23.310;2023-03-07T01:17:16;13.97;;;10.07;;
16450;SDS011;12243;42.708;23.310;2023-03-07T01:19:45;14.67;;;10.13;;
16450;SDS011;12243;42.708;23.310;2023-03-07T01:22:11;12.80;;;9.67;;
16450;SDS011;12243;42.708;23.310;2023-03-07T01:24:38;13.37;;;9.60;;
16450;SDS011;12243;42.708;23.310;2023-03-07T01:27:05;12.67;;;8.63;;
16450;SDS011;12243;42.708;23.310;2023-03-07T01:29:32;10.77;;;8.83;;
16450;SDS011;12243;42.708;23.310;2023-03-07T01:31:59;9.03;;;7.40;;
16450;SDS011;12243;42.708;23.310;2023-03-07T01:34:26;9.67;;;8.00;;
16450;SDS011;12243;42.708;23.310;2023-03-07T01:36:55;10.50;;;8.13;;
16450;SDS011;12243;42.708;23.310;2023-03-07T01:39:22;13.17;;;8.60;;
16450;SDS011;12243;42.708;23.310;2023-03-07T01:41:55;13.10;;;8.47;;
16450;SDS011;12243;42.708;23.310;2023-03-07T01:44:26;15.47;;;9.40;;
16450;SDS011;12243;42.708;23.310;2023-03-07T01:46:53;13.67;;;8.70;;
16450;SDS011;12243;42.708;23.310;2023-03-07T01:49:31;12.40;;;9.00;;
16450;SDS011;12243;42.708;23.310;2023-03-07T01:52:04;15.07;;;9.17;;
16450;SDS011;12243;42.708;23.310;2023-03-07T01:54:37;14.40;;;9.20;;
16450;SDS011;12243;42.708;23.310;2023-03-07T01:57:06;9.87;;;8.70;;
16450;SDS011;12243;42.708;23.310;2023-03-07T01:59:34;14.00;;;9.03;;
16450;SDS011;12243;42.708;23.310;2023-03-07T02:02:04;11.17;;;9.10;;
16450;SDS011;12243;42.708;23.310;2023-03-07T02:04:37;13.50;;;9.70;;
16450;SDS011;12243;42.708;23.310;2023-03-07T02:07:10;14.70;;;8.83;;
16450;SDS011;12243;42.708;23.310;2023-03-07T02:09:38;13.07;;;9.30;;
16450;SDS011;12243;42.708;23.310;2023-03-07T02:12:07;16.17;;;10.53;;
16450;SDS011;12243;42.708;23.310;2023-03-07T02:14:35;15.90;;;8.93;;
16450;SDS011;12243;42.708;23.310;2023-03-07T02:17:02;12.40;;;9.30;;
16450;SDS011;12243;42.708;23.310;2023-03-07T02:19:35;13.97;;;9.43;;
16450;SDS011;12243;42.708;23.310;2023-03-07T02:22:15;12.47;;;9.27;;
16450;SDS011;12243;42.708;23.310;2023-03-07T02:24:44;13.23;;;9.53;;
16450;SDS011;12243;42.708;23.310;2023-03-07T02:27:17;13.20;;;9.37;;
16450;SDS011;12243;42.708;23.310;2023-03-07T02:29:45;11.83;;;8.50;;
16450;SDS011;12243;42.708;23.310;2023-03-07T02:32:12;12.83;;;8.73;;
16450;SDS011;12243;42.708;23.310;2023-03-07T02:34:40;12.97;;;8.63;;
16450;SDS011;12243;42.708;23.310;2023-03-07T02:37:15;13.60;;;9.17;;
16450;SDS011;12243;42.708;23.310;2023-03-07T02:39:47;11.57;;;8.83;;
16450;SDS011;12243;42.708;23.310;2023-03-07T02:42:18;15.73;;;9.47;;
16450;SDS011;12243;42.708;23.310;2023-03-07T02:44:58;13.77;;;9.67;;
16450;SDS011;12243;42.708;23.310;2023-03-07T02:47:28;13.37;;;9.37;;
16450;SDS011;12243;42.708;23.310;2023-03-07T02:49:56;13.90;;;10.03;;
16450;SDS011;12243;42.708;23.310;2023-03-07T02:52:24;14.07;;;9.83;;
16450;SDS011;12243;42.708;23.310;2023-03-07T02:54:52;14.17;;;9.40;;
16450;SDS011;12243;42.708;23.310;2023-03-07T02:57:22;18.00;;;9.63;;
16450;SDS011;12243;42.708;23.310;2023-03-07T02:59:48;15.60;;;10.27;;
16450;SDS011;12243;42.708;23.310;2023-03-07T03:02:15;11.80;;;9.17;;
16450;SDS011;12243;42.708;23.310;2023-03-07T03:04:43;12.03;;;9.40;;
16450;SDS011;12243;42.708;23.310;2023-03-07T03:07:10;14.83;;;9.87;;
16450;SDS011;12243;42.708;23.310;2023-03-07T03:09:37;13.30;;;9.93;;
16450;SDS011;12243;42.708;23.310;2023-03-07T03:12:04;12.00;;;9.53;;
16450;SDS011;12243;42.708;23.310;2023-03-07T03:14:34;10.73;;;9.00;;
16450;SDS011;12243;42.708;23.310;2023-03-07T03:17:00;14.33;;;9.83;;
16450;SDS011;12243;42.708;23.310;2023-03-07T03:19:28;11.70;;;9.03;;
16450;SDS011;12243;42.708;23.310;2023-03-07T03:21:55;12.00;;;9.63;;
16450;SDS011;12243;42.708;23.310;2023-03-07T03:24:24;13.60;;;9.83;;
16450;SDS011;12243;42.708;23.310;2023-03-07T03:26:54;16.87;;;9.43;;
16450;SDS011;12243;42.708;23.310;2023-03-07T03:29:21;12.03;;;9.03;;
16450;SDS011;12243;42.708;23.310;2023-03-07T03:31:50;9.07;;;8.10;;
16450;SDS011;12243;42.708;23.310;2023-03-07T03:34:17;12.27;;;8.63;;
16450;SDS011;12243;42.708;23.310;2023-03-07T03:36:45;9.50;;;8.20;;
16450;SDS011;12243;42.708;23.310;2023-03-07T03:39:12;11.97;;;8.40;;
16450;SDS011;12243;42.708;23.310;2023-03-07T03:41:44;14.57;;;8.90;;
16450;SDS011;12243;42.708;23.310;2023-03-07T03:44:10;10.40;;;8.37;;
16450;SDS011;12243;42.708;23.310;2023-03-07T03:46:37;12.47;;;9.47;;
16450;SDS011;12243;42.708;23.310;2023-03-07T03:49:06;11.23;;;8.63;;
16450;SDS011;12243;42.708;23.310;2023-03-07T03:51:33;12.60;;;8.90;;
16450;SDS011;12243;42.708;23.310;2023-03-07T03:54:00;13.37;;;9.23;;
16450;SDS011;12243;42.708;23.310;2023-03-07T03:56:27;12.60;;;8.97;;
16450;SDS011;12243;42.708;23.310;2023-03-07T03:58:55;13.47;;;9.70;;
16450;SDS011;12243;42.708;23.310;2023-03-07T04:01:24;11.10;;;8.83;;
16450;SDS011;12243;42.708;23.310;2023-03-07T04:03:53;13.47;;;9.93;;
16450;SDS011;12243;42.708;23.310;2023-03-07T04:06:22;13.03;;;9.23;;
16450;SDS011;12243;42.708;23.310;2023-03-07T04:08:51;12.67;;;9.30;;
16450;SDS011;12243;42.708;23.310;2023-03-07T04:11:19;14.87;;;9.53;;
16450;SDS011;12243;42.708;23.310;2023-03-07T04:13:46;16.73;;;9.33;;
16450;SDS011;12243;42.708;23.310;2023-03-07T04:16:14;11.37;;;9.37;;
16450;SDS011;12243;42.708;23.310;2023-03-07T04:18:41;9.87;;;8.70;;
16450;SDS011;12243;42.708;23.310;2023-03-07T04:21:08;12.73;;;8.47;;
16450;SDS011;12243;42.708;23.310;2023-03-07T04:23:38;15.73;;;8.87;;
16450;SDS011;12243;42.708;23.310;2023-03-07T04:26:05;9.90;;;8.90;;
16450;SDS011;12243;42.708;23.310;2023-03-07T04:28:35;11.37;;;8.93;;
16450;SDS011;12243;42.708;23.310;2023-03-07T04:31:14;9.83;;;8.33;;
16450;SDS011;12243;42.708;23.310;2023-03-07T04:33:43;12.00;;;8.70;;
16450;SDS011;12243;42.708;23.310;2023-03-07T04:36:11;11.30;;;8.17;;
16450;SDS011;12243;42.708;23.310;2023-03-07T04:38:40;13.43;;;8.43;;
16450;SDS011;12243;42.708;23.310;2023-03-07T04:41:07;14.43;;;9.47;;
16450;SDS011;12243;42.708;23.310;2023-03-07T04:43:34;12.50;;;9.30;;
16450;SDS011;12243;42.708;23.310;2023-03-07T04:46:01;11.27;;;8.70;;
16450;SDS011;12243;42.708;23.310;2023-03-07T04:50:54;14.87;;;9.50;;
16450;SDS011;12243;42.708;23.310;2023-03-07T04:53:22;13.80;;;8.93;;
16450;SDS011;12243;42.708;23.310;2023-03-07T04:55:55;21.47;;;10.23;;
16450;SDS011;12243;42.708;23.310;2023-03-07T04:58:22;15.37;;;9.80;;
16450;SDS011;12243;42.708;23.310;2023-03-07T05:00:49;14.70;;;9.93;;
16450;SDS011;12243;42.708;23.310;2023-03-07T05:03:16;15.67;;;10.90;;
16450;SDS011;12243;42.708;23.310;2023-03-07T05:05:43;18.23;;;9.97;;
16450;SDS011;12243;42.708;23.310;2023-03-07T05:08:10;17.57;;;11.17;;
16450;SDS011;12243;42.708;23.310;2023-03-07T05:10:37;17.80;;;11.43;;
16450;SDS011;12243;42.708;23.310;2023-03-07T05:13:06;14.80;;;10.50;;
16450;SDS011;12243;42.708;23.310;2023-03-07T05:15:33;17.93;;;12.53;;
16450;SDS011;12243;42.708;23.310;2023-03-07T05:18:00;21.13;;;12.30;;
16450;SDS011;12243;42.708;23.310;2023-03-07T05:20:28;17.23;;;11.67;;
16450;SDS011;12243;42.708;23.310;2023-03-07T05:22:55;16.23;;;12.17;;
16450;SDS011;12243;42.708;23.310;2023-03-07T05:25:22;18.57;;;11.13;;
16450;SDS011;12243;42.708;23.310;2023-03-07T05:27:49;18.87;;;11.80;;
16450;SDS011;12243;42.708;23.310;2023-03-07T05:30:17;17.93;;;12.47;;
16450;SDS011;12243;42.708;23.310;2023-03-07T05:32:45;16.73;;;13.03;;
16450;SDS011;12243;42.708;23.310;2023-03-07T05:35:13;21.53;;;13.10;;
16450;SDS011;12243;42.708;23.310;2023-03-07T05:37:42;19.03;;;12.83;;
16450;SDS011;12243;42.708;23.310;2023-03-07T05:40:09;21.23;;;13.23;;
16450;SDS011;12243;42.708;23.310;2023-03-07T05:42:41;18.37;;;12.30;;
16450;SDS011;12243;42.708;23.310;2023-03-07T05:45:09;21.90;;;13.00;;
16450;SDS011;12243;42.708;23.310;2023-03-07T05:47:38;21.30;;;12.30;;
16450;SDS011;12243;42.708;23.310;2023-03-07T05:50:08;18.33;;;11.53;;
16450;SDS011;12243;42.708;23.310;2023-03-07T05:52:37;20.80;;;12.73;;
16450;SDS011;12243;42.708;23.310;2023-03-07T05:55:05;17.47;;;13.53;;
16450;SDS011;12243;42.708;23.310;2023-03-07T05:57:32;21.13;;;12.30;;
16450;SDS011;12243;42.708;23.310;2023-03-07T05:59:59;19.63;;;13.00;;
16450;SDS011;12243;42.708;23.310;2023-03-07T06:02:26;19.37;;;12.53;;
16450;SDS011;12243;42.708;23.310;2023-03-07T06:04:54;19.77;;;13.23;;
16450;SDS011;12243;42.708;23.310;2023-03-07T06:07:21;19.77;;;11.63;;
16450;SDS011;12243;42.708;23.310;2023-03-07T06:09:48;26.07;;;16.00;;
16450;SDS011;12243;42.708;23.310;2023-03-07T06:12:18;18.90;;;13.40;;
16450;SDS011;12243;42.708;23.310;2023-03-07T06:14:45;17.10;;;12.20;;
16450;SDS011;12243;42.708;23.310;2023-03-07T06:17:12;18.07;;;12.47;;
16450;SDS011;12243;42.708;23.310;2023-03-07T06:19:40;21.63;;;13.77;;
16450;SDS011;12243;42.708;23.310;2023-03-07T06:22:09;17.50;;;11.50;;
16450;SDS011;12243;42.708;23.310;2023-03-07T06:24:36;19.80;;;13.00;;
16450;SDS011;12243;42.708;23.310;2023-03-07T06:27:03;19.57;;;13.97;;
16450;SDS011;12243;42.708;23.310;2023-03-07T06:29:30;16.87;;;12.97;;
16450;SDS011;12243;42.708;23.310;2023-03-07T06:31:58;14.93;;;11.37;;
16450;SDS011;12243;42.708;23.310;2023-03-07T06:34:25;22.07;;;13.47;;
16450;SDS011;12243;42.708;23.310;2023-03-07T06:36:52;18.87;;;13.57;;
16450;SDS011;12243;42.708;23.310;2023-03-07T06:39:20;17.93;;;11.87;;
16450;SDS011;12243;42.708;23.310;2023-03-07T06:41:50;15.63;;;10.43;;
16450;SDS011;12243;42.708;23.310;2023-03-07T06:44:17;32.57;;;18.77;;
16450;SDS011;12243;42.708;23.310;2023-03-07T06:46:44;18.03;;;11.23;;
16450;SDS011;12243;42.708;23.310;2023-03-07T06:49:18;21.27;;;12.67;;
16450;SDS011;12243;42.708;23.310;2023-03-07T06:51:46;19.90;;;11.80;;
16450;SDS011;12243;42.708;23.310;2023-03-07T06:54:14;17.97;;;12.97;;
16450;SDS011;12243;42.708;23.310;2023-03-07T06:56:42;17.40;;;11.30;;
16450;SDS011;12243;42.708;23.310;2023-03-07T06:59:10;19.63;;;11.80;;
16450;SDS011;12243;42.708;23.310;2023-03-07T07:01:37;16.33;;;12.00;;
16450;SDS011;12243;42.708;23.310;2023-03-07T07:04:04;15.77;;;10.23;;
16450;SDS011;12243;42.708;23.310;2023-03-07T07:06:31;13.77;;;10.73;;
16450;SDS011;12243;42.708;23.310;2023-03-07T07:08:58;21.53;;;11.27;;
16450;SDS011;12243;42.708;23.310;2023-03-07T07:11:29;15.63;;;10.23;;
16450;SDS011;12243;42.708;23.310;2023-03-07T07:13:59;12.77;;;10.10;;
16450;SDS011;12243;42.708;23.310;2023-03-07T07:16:26;14.87;;;11.07;;
16450;SDS011;12243;42.708;23.310;2023-03-07T07:18:54;15.03;;;10.47;;
16450;SDS011;12243;42.708;23.310;2023-03-07T07:21:20;19.53;;;11.47;;
16450;SDS011;12243;42.708;23.310;2023-03-07T07:23:47;12.00;;;9.77;;
16450;SDS011;12243;42.708;23.310;2023-03-07T07:26:14;14.73;;;9.90;;
16450;SDS011;12243;42.708;23.310;2023-03-07T07:28:41;14.53;;;11.03;;
16450;SDS011;12243;42.708;23.310;2023-03-07T07:31:09;15.23;;;10.33;;
16450;SDS011;12243;42.708;23.310;2023-03-07T07:33:36;18.53;;;10.60;;
16450;SDS011;12243;42.708;23.310;2023-03-07T07:36:05;12.67;;;9.77;;
16450;SDS011;12243;42.708;23.310;2023-03-07T07:38:34;13.03;;;9.93;;
16450;SDS011;12243;42.708;23.310;2023-03-07T07:41:01;14.47;;;10.10;;
16450;SDS011;12243;42.708;23.310;2023-03-07T07:43:28;14.50;;;8.80;;
16450;SDS011;12243;42.708;23.310;2023-03-07T07:46:26;13.67;;;9.37;;
16450;SDS011;12243;42.708;23.310;2023-03-07T07:48:53;11.47;;;9.00;;
16450;SDS011;12243;42.708;23.310;2023-03-07T07:51:21;17.43;;;9.90;;
16450;SDS011;12243;42.708;23.310;2023-03-07T07:53:48;15.23;;;10.23;;
16450;SDS011;12243;42.708;23.310;2023-03-07T07:56:15;16.53;;;10.83;;
16450;SDS011;12243;42.708;23.310;2023-03-07T07:58:42;11.90;;;9.63;;
16450;SDS011;12243;42.708;23.310;2023-03-07T08:01:13;14.93;;;10.47;;
16450;SDS011;12243;42.708;23.310;2023-03-07T08:03:42;13.57;;;8.90;;
16450;SDS011;12243;42.708;23.310;2023-03-07T08:06:09;14.90;;;9.03;;
16450;SDS011;12243;42.708;23.310;2023-03-07T08:08:37;12.37;;;9.37;;
16450;SDS011;12243;42.708;23.310;2023-03-07T08:11:04;14.90;;;8.80;;
16450;SDS011;12243;42.708;23.310;2023-03-07T08:13:32;11.73;;;8.73;;
16450;SDS011;12243;42.708;23.310;2023-03-07T08:15:59;11.67;;;9.17;;
16450;SDS011;12243;42.708;23.310;2023-03-07T08:18:26;9.80;;;8.30;;
16450;SDS011;12243;42.708;23.310;2023-03-07T08:20:54;13.43;;;8.90;;
16450;SDS011;12243;42.708;23.310;2023-03-07T08:23:24;11.20;;;8.40;;
16450;SDS011;12243;42.708;23.310;2023-03-07T08:25:51;11.47;;;9.33;;
16450;SDS011;12243;42.708;23.310;2023-03-07T08:28:18;13.13;;;8.93;;
16450;SDS011;12243;42.708;23.310;2023-03-07T08:30:45;16.00;;;9.37;;
16450;SDS011;12243;42.708;23.310;2023-03-07T08:33:12;15.47;;;9.83;;
16450;SDS011;12243;42.708;23.310;2023-03-07T08:35:39;15.23;;;9.53;;
16450;SDS011;12243;42.708;23.310;2023-03-07T08:38:07;14.03;;;9.77;;
16450;SDS011;12243;42.708;23.310;2023-03-07T08:40:34;12.23;;;9.20;;
16450;SDS011;12243;42.708;23.310;2023-03-07T08:43:01;12.90;;;8.53;;
16450;SDS011;12243;42.708;23.310;2023-03-07T08:45:28;11.20;;;7.60;;
16450;SDS011;12243;42.708;23.310;2023-03-07T08:47:55;10.00;;;7.13;;
16450;SDS011;12243;42.708;23.310;2023-03-07T08:50:23;9.87;;;7.87;;
16450;SDS011;12243;42.708;23.310;2023-03-07T08:52:52;11.80;;;7.90;;
16450;SDS011;12243;42.708;23.310;2023-03-07T08:55:20;8.03;;;6.93;;
16450;SDS011;12243;42.708;23.310;2023-03-07T08:57:47;10.57;;;6.90;;
16450;SDS011;12243;42.708;23.310;2023-03-07T09:00:14;9.13;;;6.30;;
16450;SDS011;12243;42.708;23.310;2023-03-07T09:02:43;7.37;;;6.10;;
16450;SDS011;12243;42.708;23.310;2023-03-07T09:05:09;9.10;;;6.50;;
16450;SDS011;12243;42.708;23.310;2023-03-07T09:07:36;8.10;;;6.93;;
16450;SDS011;12243;42.708;23.310;2023-03-07T09:10:04;12.87;;;7.37;;
16450;SDS011;12243;42.708;23.310;2023-03-07T09:12:33;9.23;;;7.27;;
16450;SDS011;12243;42.708;23.310;2023-03-07T09:15:00;8.97;;;7.97;;
16450;SDS011;12243;42.708;23.310;2023-03-07T09:17:27;9.30;;;8.13;;
16450;SDS011;12243;42.708;23.310;2023-03-07T09:19:54;11.17;;;8.37;;
16450;SDS011;12243;42.708;23.310;2023-03-07T09:22:20;11.70;;;7.63;;
16450;SDS011;12243;42.708;23.310;2023-03-07T09:24:47;11.87;;;8.53;;
16450;SDS011;12243;42.708;23.310;2023-03-07T09:27:14;12.70;;;8.87;;
16450;SDS011;12243;42.708;23.310;2023-03-07T09:29:42;10.40;;;7.80;;
16450;SDS011;12243;42.708;23.310;2023-03-07T09:32:09;12.37;;;8.03;;
16450;SDS011;12243;42.708;23.310;2023-03-07T09:34:36;12.63;;;10.13;;
16450;SDS011;12243;42.708;23.310;2023-03-07T09:37:03;7.73;;;6.13;;
16450;SDS011;12243;42.708;23.310;2023-03-07T09:39:30;9.97;;;5.73;;
16450;SDS011;12243;42.708;23.310;2023-03-07T09:42:03;5.33;;;4.83;;
16450;SDS011;12243;42.708;23.310;2023-03-07T09:44:38;6.60;;;5.17;;
16450;SDS011;12243;42.708;23.310;2023-03-07T09:47:49;11.00;;;5.63;;
16450;SDS011;12243;42.708;23.310;2023-03-07T09:50:43;9.30;;;5.17;;
16450;SDS011;12243;42.708;23.310;2023-03-07T09:53:17;6.33;;;5.53;;
16450;SDS011;12243;42.708;23.310;2023-03-07T09:55:47;5.50;;;4.77;;
16450;SDS011;12243;42.708;23.310;2023-03-07T09:58:17;7.00;;;4.77;;
16450;SDS011;12243;42.708;23.310;2023-03-07T10:00:49;7.50;;;5.20;;
16450;SDS011;12243;42.708;23.310;2023-03-07T10:03:23;8.87;;;5.10;;
16450;SDS011;12243;42.708;23.310;2023-03-07T10:05:58;10.90;;;5.87;;
16450;SDS011;12243;42.708;23.310;2023-03-07T10:08:31;7.05;;;5.90;;
16450;SDS011;12243;42.708;23.310;2023-03-07T10:11:01;6.75;;;5.82;;
16450;SDS011;12243;42.708;23.310;2023-03-07T10:13:43;8.57;;;5.93;;
16450;SDS011;12243;42.708;23.310;2023-03-07T10:16:19;5.80;;;5.30;;
16450;SDS011;12243;42.708;23.310;2023-03-07T10:19:02;6.95;;;5.05;;
16450;SDS011;12243;42.708;23.310;2023-03-07T10:21:36;9.23;;;5.55;;
16450;SDS011;12243;42.708;23.310;2023-03-07T10:27:09;4.75;;;4.25;;
16450;SDS011;12243;42.708;23.310;2023-03-07T10:29:39;12.07;;;5.50;;
16450;SDS011;12243;42.708;23.310;2023-03-07T10:32:17;7.80;;;6.13;;
16450;SDS011;12243;42.708;23.310;2023-03-07T10:34:47;5.40;;;4.80;;
16450;SDS011;12243;42.708;23.310;2023-03-07T10:37:20;5.50;;;4.40;;
16450;SDS011;12243;42.708;23.310;2023-03-07T10:39:55;3.55;;;2.78;;
16450;SDS011;12243;42.708;23.310;2023-03-07T10:42:23;3.97;;;2.70;;
16450;SDS011;12243;42.708;23.310;2023-03-07T10:44:57;3.33;;;3.03;;
16450;SDS011;12243;42.708;23.310;2023-03-07T10:47:26;3.83;;;2.80;;
16450;SDS011;12243;42.708;23.310;2023-03-07T10:49:55;4.03;;;2.90;;
16450;SDS011;12243;42.708;23.310;2023-03-07T10:52:29;6.30;;;2.85;;
16450;SDS011;12243;42.708;23.310;2023-03-07T10:58:11;8.07;;;3.90;;
16450;SDS011;12243;42.708;23.310;2023-03-07T11:00:44;4.40;;;3.70;;
16450;SDS011;12243;42.708;23.310;2023-03-07T11:03:24;4.78;;;2.90;;
16450;SDS011;12243;42.708;23.310;2023-03-07T11:05:54;2.90;;;2.70;;
16450;SDS011;12243;42.708;23.310;2023-03-07T11:08:28;4.57;;;3.10;;
16450;SDS011;12243;42.708;23.310;2023-03-07T11:10:57;6.90;;;3.22;;
16450;SDS011;12243;42.708;23.310;2023-03-07T11:13:25;3.40;;;3.10;;
16450;SDS011;12243;42.708;23.310;2023-03-07T11:16:08;3.25;;;2.90;;
16450;SDS011;12243;42.708;23.310;2023-03-07T11:18:42;3.47;;;2.72;;
16450;SDS011;12243;42.708;23.310;2023-03-07T11:21:25;4.85;;;3.42;;
16450;SDS011;12243;42.708;23.310;2023-03-07T11:24:00;4.15;;;2.20;;
16450;SDS011;12243;42.708;23.310;2023-03-07T11:26:29;2.15;;;2.05;;
16450;SDS011;12243;42.708;23.310;2023-03-07T11:29:08;3.83;;;2.17;;
16450;SDS011;12243;42.708;23.310;2023-03-07T11:31:38;2.10;;;1.95;;
16450;SDS011;12243;42.708;23.310;2023-03-07T11:34:25;2.17;;;2.10;;
16450;SDS011;12243;42.708;23.310;2023-03-07T11:37:01;3.22;;;1.90;;
16450;SDS011;12243;42.708;23.310;2023-03-07T11:39:41;4.65;;;2.50;;
16450;SDS011;12243;42.708;23.310;2023-03-07T11:42:16;6.35;;;2.38;;
16450;SDS011;12243;42.708;23.310;2023-03-07T11:44:50;2.40;;;2.20;;
16450;SDS011;12243;42.708;23.310;2023-03-07T11:47:24;4.45;;;2.38;;
16450;SDS011;12243;42.708;23.310;2023-03-07T11:53:26;2.40;;;2.20;;
16450;SDS011;12243;42.708;23.310;2023-03-07T11:56:04;2.40;;;2.20;;
16450;SDS011;12243;42.708;23.310;2023-03-07T11:58:50;4.97;;;2.40;;
16450;SDS011;12243;42.708;23.310;2023-03-07T12:01:43;6.80;;;2.47;;
16450;SDS011;12243;42.708;23.310;2023-03-07T12:07:28;2.75;;;2.47;;
16450;SDS011;12243;42.708;23.310;2023-03-07T12:10:15;3.45;;;2.22;;
16450;SDS011;12243;42.708;23.310;2023-03-07T12:12:56;2.90;;;2.65;;
16450;SDS011;12243;42.708;23.310;2023-03-07T12:15:33;2.50;;;2.15;;
16450;SDS011;12243;42.708;23.310;2023-03-07T12:21:04;2.15;;;2.05;;
16450;SDS011;12243;42.708;23.310;2023-03-07T12:23:45;3.47;;;1.83;;
16450;SDS011;12243;42.708;23.310;2023-03-07T12:26:16;2.25;;;2.05;;
16450;SDS011;12243;42.708;23.310;2023-03-07T12:28:48;2.35;;;2.10;;
16450;SDS011;12243;42.708;23.310;2023-03-07T12:31:21;2.83;;;2.10;;
16450;SDS011;12243;42.708;23.310;2023-03-07T12:33:53;2.60;;;2.40;;
16450;SDS011;12243;42.708;23.310;2023-03-07T12:36:26;2.13;;;2.03;;
16450;SDS011;12243;42.708;23.310;2023-03-07T12:39:00;3.05;;;2.30;;
16450;SDS011;12243;42.708;23.310;2023-03-07T12:41:37;4.90;;;2.45;;
16450;SDS011;12243;42.708;23.310;2023-03-07T12:44:11;2.45;;;2.20;;
16450;SDS011;12243;42.708;23.310;2023-03-07T12:46:43;2.45;;;2.25;;
16450;SDS011;12243;42.708;23.310;2023-03-07T12:49:15;3.33;;;2.20;;
16450;SDS011;12243;42.708;23.310;2023-03-07T12:51:51;2.40;;;2.17;;
16450;SDS011;12243;42.708;23.310;2023-03-07T12:54:22;5.03;;;2.17;;
16450;SDS011;12243;42.708;23.310;2023-03-07T12:56:56;1.90;;;1.80;;
16450;SDS011;12243;42.708;23.310;2023-03-07T12:59:29;3.40;;;2.15;;
16450;SDS011;12243;42.708;23.310;2023-03-07T13:01:59;2.45;;;1.90;;
16450;SDS011;12243;42.708;23.310;2023-03-07T13:04:31;1.95;;;1.70;;
16450;SDS011;12243;42.708;23.310;2023-03-07T13:07:01;2.33;;;2.00;;
16450;SDS011;12243;42.708;23.310;2023-03-07T13:09:33;1.80;;;1.65;;
16450;SDS011;12243;42.708;23.310;2023-03-07T13:12:27;3.00;;;1.63;;
16450;SDS011;12243;42.708;23.310;2023-03-07T13:14:57;3.22;;;1.60;;
16450;SDS011;12243;42.708;23.310;2023-03-07T13:20:35;1.55;;;1.45;;
16450;SDS011;12243;42.708;23.310;2023-03-07T13:23:20;1.77;;;1.67;;
16450;SDS011;12243;42.708;23.310;2023-03-07T13:25:57;1.60;;;1.60;;
16450;SDS011;12243;42.708;23.310;2023-03-07T13:31:25;2.20;;;1.80;;
16450;SDS011;12243;42.708;23.310;2023-03-07T13:49:32;2.20;;;2.03;;
16450;SDS011;12243;42.708;23.310;2023-03-07T13:55:13;2.10;;;2.00;;
16450;SDS011;12243;42.708;23.310;2023-03-07T13:57:51;2.63;;;2.17;;
16450;SDS011;12243;42.708;23.310;2023-03-07T14:00:29;2.55;;;2.30;;
16450;SDS011;12243;42.708;23.310;2023-03-07T14:02:59;4.05;;;2.10;;
16450;SDS011;12243;42.708;23.310;2023-03-07T14:05:26;2.17;;;2.05;;
16450;SDS011;12243;42.708;23.310;2023-03-07T14:07:55;5.25;;;2.22;;
16450;SDS011;12243;42.708;23.310;2023-03-07T14:10:25;2.72;;;2.30;;
16450;SDS011;12243;42.708;23.310;2023-03-07T14:13:02;3.60;;;2.10;;
16450;SDS011;12243;42.708;23.310;2023-03-07T14:15:41;4.32;;;2.88;;
16450;SDS011;12243;42.708;23.310;2023-03-07T14:18:20;4.50;;;2.42;;
16450;SDS011;12243;42.708;23.310;2023-03-07T14:20:56;2.55;;;2.22;;
16450;SDS011;12243;42.708;23.310;2023-03-07T14:26:47;3.67;;;2.05;;
16450;SDS011;12243;42.708;23.310;2023-03-07T14:29:19;3.35;;;1.80;;
16450;SDS011;12243;42.708;23.310;2023-03-07T14:31:47;2.28;;;2.08;;
16450;SDS011;12243;42.708;23.310;2023-03-07T14:34:21;5.18;;;2.40;;
16450;SDS011;12243;42.708;23.310;2023-03-07T14:36:52;4.63;;;2.08;;
16450;SDS011;12243;42.708;23.310;2023-03-07T14:39:21;4.50;;;2.77;;
16450;SDS011;12243;42.708;23.310;2023-03-07T14:41:51;3.77;;;2.10;;
16450;SDS011;12243;42.708;23.310;2023-03-07T14:44:40;4.53;;;2.37;;
16450;SDS011;12243;42.708;23.310;2023-03-07T14:47:22;3.30;;;3.10;;
16450;SDS011;12243;42.708;23.310;2023-03-07T14:50:03;4.07;;;2.63;;
16450;SDS011;12243;42.708;23.310;2023-03-07T14:52:38;2.57;;;2.30;;
16450;SDS011;12243;42.708;23.310;2023-03-07T14:55:05;5.53;;;4.17;;
16450;SDS011;12243;42.708;23.310;2023-03-07T14:57:40;3.03;;;2.73;;
16450;SDS011;12243;42.708;23.310;2023-03-07T15:00:11;2.07;;;1.80;;
16450;SDS011;12243;42.708;23.310;2023-03-07T15:02:45;4.27;;;3.47;;
16450;SDS011;12243;42.708;23.310;2023-03-07T15:05:18;7.70;;;3.50;;
16450;SDS011;12243;42.708;23.310;2023-03-07T15:07:46;5.30;;;3.50;;
16450;SDS011;12243;42.708;23.310;2023-03-07T15:10:14;3.40;;;3.10;;
16450;SDS011;12243;42.708;23.310;2023-03-07T15:12:43;4.60;;;2.70;;
16450;SDS011;12243;42.708;23.310;2023-03-07T15:15:16;7.07;;;2.87;;
16450;SDS011;12243;42.708;23.310;2023-03-07T15:17:49;4.30;;;2.17;;
16450;SDS011;12243;42.708;23.310;2023-03-07T15:20:20;3.67;;;2.40;;
16450;SDS011;12243;42.708;23.310;2023-03-07T15:22:49;3.90;;;2.40;;
16450;SDS011;12243;42.708;23.310;2023-03-07T15:25:18;3.27;;;2.80;;
16450;SDS011;12243;42.708;23.310;2023-03-07T15:27:47;4.27;;;3.50;;